createdAt,value
2018-01-12T00:00:55.800Z,19.43
2018-01-12T00:03:24.277Z,22.97
2018-01-12T00:05:52.564Z,18.53
2018-01-12T00:08:20.834Z,17.90
2018-01-12T00:10:49.139Z,16.87
2018-01-12T00:13:17.411Z,20.85
2018-01-12T00:15:45.722Z,16.70
2018-01-12T00:18:14.042Z,16.33
2018-01-12T00:20:42.321Z,17.23
2018-01-12T00:23:10.592Z,21.40
2018-01-12T00:25:38.902Z,18.63
2018-01-12T00:28:07.172Z,18.98
2018-01-12T00:30:35.796Z,19.20
2018-01-12T00:33:04.077Z,17.90
2018-01-12T00:35:32.388Z,16.43
2018-01-12T00:38:00.676Z,19.00
2018-01-12T00:40:28.988Z,18.13
2018-01-12T00:42:57.297Z,16.40
2018-01-12T00:45:25.563Z,18.75
2018-01-12T00:47:53.883Z,18.20
2018-01-12T00:50:22.159Z,16.37
2018-01-12T00:52:50.549Z,19.53
2018-01-12T00:55:18.830Z,19.10
2018-01-12T00:57:47.131Z,19.37
2018-01-12T01:00:15.401Z,22.40
2018-01-12T01:02:43.719Z,19.23
2018-01-12T01:05:11.984Z,16.23
2018-01-12T01:07:40.298Z,22.33
2018-01-12T01:10:08.564Z,18.10
2018-01-12T01:12:36.852Z,25.10
2018-01-12T01:15:05.131Z,21.60
2018-01-12T01:17:33.484Z,19.70
2018-01-12T01:20:01.765Z,21.30
2018-01-12T01:22:30.075Z,21.73
2018-01-12T01:24:58.374Z,23.27
2018-01-12T01:27:26.672Z,18.57
2018-01-12T01:29:54.974Z,19.50
2018-01-12T01:32:23.248Z,22.92
2018-01-12T01:34:51.567Z,18.50
2018-01-12T01:37:19.843Z,20.88
2018-01-12T01:39:48.134Z,18.40
2018-01-12T01:42:16.439Z,19.87
2018-01-12T01:44:44.728Z,19.97
2018-01-12T01:47:13.004Z,19.40
2018-01-12T01:49:41.308Z,20.87
2018-01-12T01:52:09.584Z,22.02
2018-01-12T01:54:37.895Z,21.67
2018-01-12T01:57:06.184Z,20.83
2018-01-12T01:59:34.447Z,18.63
2018-01-12T02:02:03.298Z,21.40
2018-01-12T02:04:31.641Z,20.13
2018-01-12T02:06:59.908Z,20.20
2018-01-12T02:09:28.162Z,18.63
2018-01-12T02:11:56.469Z,19.47
2018-01-12T02:14:24.722Z,19.60
2018-01-12T02:16:53.072Z,17.87
2018-01-12T02:19:21.331Z,23.90
2018-01-12T02:21:49.656Z,18.67
2018-01-12T02:24:17.919Z,19.02
2018-01-12T02:26:46.199Z,22.13
2018-01-12T02:29:14.499Z,16.60
2018-01-12T02:31:42.751Z,17.90
2018-01-12T02:34:11.047Z,18.62
2018-01-12T02:36:39.371Z,18.13
2018-01-12T02:39:07.687Z,24.83
2018-01-12T02:41:35.985Z,17.73
2018-01-12T02:44:05.053Z,19.42
2018-01-12T02:46:33.332Z,17.80
2018-01-12T02:49:01.632Z,19.07
2018-01-12T02:51:29.894Z,17.77
2018-01-12T02:53:58.227Z,23.23
2018-01-12T02:56:26.516Z,18.70
2018-01-12T02:58:54.783Z,18.17
2018-01-12T03:01:23.127Z,18.53
2018-01-12T03:03:51.382Z,19.33
2018-01-12T03:06:19.686Z,19.37
2018-01-12T03:08:48.031Z,13.30
2018-01-12T03:11:16.343Z,15.23
2018-01-12T03:13:44.625Z,17.70
2018-01-12T03:16:13.040Z,14.23
2018-01-12T03:18:41.332Z,15.73
2018-01-12T03:21:09.615Z,18.37
2018-01-12T03:23:38.006Z,17.90
2018-01-12T03:26:06.239Z,16.67
2018-01-12T03:28:34.548Z,17.97
2018-01-12T03:31:02.812Z,16.30
2018-01-12T03:33:31.108Z,16.73
2018-01-12T03:35:59.389Z,14.70
2018-01-12T03:38:27.689Z,18.00
2018-01-12T03:40:55.982Z,20.47
2018-01-12T03:43:24.287Z,22.20
2018-01-12T03:45:52.570Z,20.77
2018-01-12T03:48:20.847Z,17.83
2018-01-12T03:50:49.145Z,19.90
2018-01-12T03:53:17.422Z,22.20
2018-01-12T03:55:45.739Z,15.70
2018-01-12T03:58:14.003Z,19.40
2018-01-12T04:00:42.323Z,18.92
2018-01-12T04:03:10.614Z,19.55
2018-01-12T04:05:38.914Z,16.20
2018-01-12T04:08:07.186Z,17.60
2018-01-12T04:10:35.467Z,17.07
2018-01-12T04:13:03.791Z,17.73
2018-01-12T04:15:32.054Z,20.53
2018-01-12T04:18:00.368Z,19.93
2018-01-12T04:20:28.644Z,17.43
2018-01-12T04:22:56.948Z,16.10
2018-01-12T04:25:25.227Z,21.80
2018-01-12T04:27:53.511Z,18.43
2018-01-12T04:30:21.798Z,22.27
2018-01-12T04:32:50.116Z,20.20
2018-01-12T04:35:18.390Z,17.77
2018-01-12T04:37:46.672Z,23.77
2018-01-12T04:40:14.947Z,18.62
2018-01-12T04:42:43.239Z,20.95
2018-01-12T04:45:11.514Z,24.37
2018-01-12T04:47:39.822Z,19.07
2018-01-12T04:50:08.127Z,23.17
2018-01-12T04:52:36.409Z,16.53
2018-01-12T04:55:05.012Z,17.97
2018-01-12T04:57:33.629Z,15.23
2018-01-12T05:00:01.943Z,21.43
2018-01-12T05:02:30.228Z,18.03
2018-01-12T05:04:58.524Z,18.10
2018-01-12T05:07:26.808Z,17.47
2018-01-12T05:09:55.124Z,18.12
2018-01-12T05:12:23.388Z,14.63
2018-01-12T05:14:51.701Z,19.73
2018-01-12T05:17:19.971Z,14.77
2018-01-12T05:19:48.255Z,14.52
2018-01-12T05:22:16.542Z,19.73
2018-01-12T05:24:44.836Z,23.33
2018-01-12T05:27:13.142Z,16.20
2018-01-12T05:29:41.394Z,14.63
2018-01-12T05:32:09.704Z,12.35
2018-01-12T05:34:37.984Z,14.20
2018-01-12T05:37:06.287Z,14.10
2018-01-12T05:39:34.547Z,17.40
2018-01-12T05:42:02.827Z,14.83
2018-01-12T05:44:31.092Z,16.13
2018-01-12T05:46:59.566Z,20.73
2018-01-12T05:49:27.788Z,21.00
2018-01-12T05:51:56.086Z,19.20
2018-01-12T05:54:24.357Z,17.43
2018-01-12T05:56:52.642Z,20.80
2018-01-12T05:59:21.253Z,16.00
2018-01-12T06:02:01.300Z,19.43
2018-01-12T06:04:41.254Z,16.47
2018-01-12T06:07:09.548Z,18.10
2018-01-12T06:09:37.889Z,17.20
2018-01-12T06:12:06.147Z,17.10
2018-01-12T06:14:34.440Z,18.80
2018-01-12T06:17:02.701Z,13.60
2018-01-12T06:19:30.994Z,14.40
2018-01-12T06:21:59.255Z,15.47
2018-01-12T06:24:27.566Z,14.93
2018-01-12T06:26:55.835Z,15.40
2018-01-12T06:29:24.142Z,15.40
2018-01-12T06:31:52.420Z,15.10
2018-01-12T06:34:20.706Z,15.13
2018-01-12T06:36:48.980Z,19.70
2018-01-12T06:39:17.292Z,14.00
2018-01-12T06:41:45.547Z,20.58
2018-01-12T06:44:13.856Z,16.48
2018-01-12T06:46:42.131Z,19.47
2018-01-12T06:49:10.429Z,18.08
2018-01-12T06:51:38.696Z,16.30
2018-01-12T06:54:06.958Z,20.43
2018-01-12T06:56:35.969Z,16.40
2018-01-12T06:59:04.356Z,15.00
2018-01-12T07:01:32.603Z,13.17
2018-01-12T07:04:00.883Z,17.10
2018-01-12T07:06:30.004Z,15.97
2018-01-12T07:08:58.273Z,20.63
2018-01-12T07:11:26.953Z,15.57
2018-01-12T07:13:55.220Z,13.50
2018-01-12T07:16:23.526Z,14.47
2018-01-12T07:18:51.779Z,16.33
2018-01-12T07:21:31.926Z,14.87
2018-01-12T07:24:00.252Z,16.07
2018-01-12T07:26:28.575Z,19.60
2018-01-12T07:28:56.852Z,19.17
2018-01-12T07:31:25.128Z,19.73
2018-01-12T07:33:53.411Z,22.40
2018-01-12T07:36:21.694Z,17.85
2018-01-12T07:38:50.045Z,18.53
2018-01-12T07:41:18.323Z,21.63
2018-01-12T07:43:46.635Z,20.10
2018-01-12T07:46:14.894Z,17.87
2018-01-12T07:48:43.175Z,20.13
2018-01-12T07:51:11.464Z,20.33
2018-01-12T07:53:39.794Z,18.63
2018-01-12T07:56:08.093Z,22.20
2018-01-12T07:58:36.357Z,21.33
2018-01-12T08:01:10.415Z,18.47
2018-01-12T08:03:38.678Z,29.23
2018-01-12T08:06:06.977Z,22.50
2018-01-12T08:08:35.278Z,24.10
2018-01-12T08:11:04.366Z,24.73
2018-01-12T08:13:32.693Z,26.20
2018-01-12T08:16:00.963Z,27.73
2018-01-12T08:18:29.242Z,25.60
2018-01-12T08:20:57.539Z,23.45
2018-01-12T08:23:25.985Z,19.63
2018-01-12T08:25:54.550Z,17.23
2018-01-12T08:28:22.809Z,21.15
2018-01-12T08:30:51.270Z,21.50
2018-01-12T08:33:19.531Z,25.52
2018-01-12T08:35:47.896Z,19.43
2018-01-12T08:38:16.227Z,21.27
2018-01-12T08:40:44.501Z,22.03
2018-01-12T08:43:12.808Z,21.15
2018-01-12T08:45:41.087Z,19.10
2018-01-12T08:48:09.377Z,20.27
2018-01-12T08:50:37.675Z,20.80
2018-01-12T08:53:05.963Z,21.53
2018-01-12T08:55:34.285Z,23.00
2018-01-12T08:58:02.574Z,21.80
2018-01-12T09:00:30.862Z,24.30
2018-01-12T09:02:59.213Z,19.87
2018-01-12T09:05:27.680Z,26.73
2018-01-12T09:07:55.979Z,24.33
2018-01-12T09:10:24.232Z,22.17
2018-01-12T09:12:53.447Z,27.40
2018-01-12T09:15:22.536Z,23.67
2018-01-12T09:17:50.802Z,23.17
2018-01-12T09:20:21.838Z,25.80
2018-01-12T09:22:50.081Z,31.00
2018-01-12T09:25:25.908Z,25.62
2018-01-12T09:27:54.172Z,29.60
2018-01-12T09:30:22.491Z,25.57
2018-01-12T09:32:50.762Z,26.50
2018-01-12T09:35:19.067Z,20.83
2018-01-12T09:37:59.403Z,25.27
2018-01-12T09:40:31.560Z,24.13
2018-01-12T09:42:59.848Z,29.50
2018-01-12T09:45:28.147Z,25.60
2018-01-12T09:48:11.000Z,24.33
2018-01-12T09:50:39.308Z,29.40
2018-01-12T09:53:07.567Z,27.50
2018-01-12T09:55:35.893Z,27.23
2018-01-12T09:58:04.183Z,25.00
2018-01-12T10:00:40.359Z,27.58
2018-01-12T10:03:08.666Z,28.98
2018-01-12T10:05:37.014Z,27.60
2018-01-12T10:08:05.292Z,28.80
2018-01-12T10:10:33.966Z,27.50
2018-01-12T10:13:02.283Z,31.13
2018-01-12T10:15:30.572Z,26.03
2018-01-12T10:17:58.905Z,41.10
2018-01-12T10:20:29.929Z,25.07
2018-01-12T10:22:58.265Z,24.67
2018-01-12T10:25:26.506Z,31.67
2018-01-12T10:27:55.142Z,28.67
2018-01-12T10:30:23.465Z,26.13
2018-01-12T10:33:03.608Z,25.07
2018-01-12T10:35:31.941Z,28.48
2018-01-12T10:38:00.235Z,24.23
2018-01-12T10:40:52.938Z,22.37
2018-01-12T10:43:20.596Z,31.70
2018-01-12T10:45:55.258Z,26.50
2018-01-12T10:51:36.465Z,22.93
2018-01-12T10:54:04.750Z,27.90
2018-01-12T10:56:33.067Z,26.87
2018-01-12T10:59:01.375Z,29.00
2018-01-12T11:01:29.679Z,24.92
2018-01-12T11:03:58.016Z,26.33
2018-01-12T11:06:26.304Z,24.67
2018-01-12T11:08:54.650Z,24.33
2018-01-12T11:11:22.929Z,29.20
2018-01-12T11:13:51.271Z,24.70
2018-01-12T11:16:19.558Z,27.47
2018-01-12T11:18:47.883Z,20.33
2018-01-12T11:21:16.166Z,22.17
2018-01-12T11:23:44.466Z,21.67
2018-01-12T11:26:12.892Z,20.40
2018-01-12T11:28:41.174Z,19.27
2018-01-12T11:31:10.665Z,21.47
2018-01-12T11:33:38.967Z,20.23
2018-01-12T11:36:07.339Z,21.07
2018-01-12T11:38:35.615Z,22.23
2018-01-12T11:41:03.946Z,35.93
2018-01-12T11:43:32.233Z,21.37
2018-01-12T11:46:00.619Z,25.33
2018-01-12T11:48:28.894Z,24.73
2018-01-12T11:50:57.240Z,23.47
2018-01-12T11:53:25.564Z,22.77
2018-01-12T11:55:53.872Z,21.47
2018-01-12T11:58:22.155Z,19.70
2018-01-12T12:00:51.207Z,22.67
2018-01-12T12:03:19.552Z,21.97
2018-01-12T12:05:47.802Z,24.23
2018-01-12T12:08:16.147Z,23.40
2018-01-12T12:10:44.436Z,25.97
2018-01-12T12:13:12.778Z,26.05
2018-01-12T12:15:41.152Z,23.57
2018-01-12T12:18:09.514Z,24.50
2018-01-12T12:20:37.762Z,26.23
2018-01-12T12:23:06.092Z,23.37
2018-01-12T12:25:34.354Z,29.37
2018-01-12T12:28:02.672Z,25.10
2018-01-12T12:30:30.996Z,24.67
2018-01-12T12:32:59.344Z,31.63
2018-01-12T12:35:28.452Z,27.90
2018-01-12T12:37:56.745Z,27.57
2018-01-12T12:40:25.073Z,28.67
2018-01-12T12:42:53.348Z,30.03
2018-01-12T12:45:21.663Z,24.70
2018-01-12T12:47:50.040Z,23.73
2018-01-12T12:50:18.374Z,23.63
2018-01-12T12:52:46.646Z,24.65
2018-01-12T12:55:14.996Z,23.30
2018-01-12T12:57:43.271Z,25.30
2018-01-12T13:00:11.580Z,23.67
2018-01-12T13:02:39.870Z,24.43
2018-01-12T13:05:08.217Z,21.40
2018-01-12T13:07:36.516Z,21.98
2018-01-12T13:10:05.183Z,24.03
2018-01-12T13:12:33.527Z,23.20
2018-01-12T13:15:03.753Z,22.55
2018-01-12T13:17:32.111Z,22.43
2018-01-12T13:20:00.405Z,24.30
2018-01-12T13:22:28.724Z,23.43
2018-01-12T13:24:56.995Z,23.80
2018-01-12T13:27:25.321Z,19.10
2018-01-12T13:29:54.179Z,19.83
2018-01-12T13:32:22.513Z,23.67
2018-01-12T13:34:50.799Z,21.13
2018-01-12T13:37:19.941Z,20.37
2018-01-12T13:39:48.231Z,23.83
2018-01-12T13:42:16.820Z,21.20
2018-01-12T13:44:45.217Z,22.10
2018-01-12T13:47:13.524Z,18.20
2018-01-12T13:49:41.815Z,18.43
2018-01-12T13:52:10.071Z,18.30
2018-01-12T13:54:38.382Z,21.00
2018-01-12T13:57:06.694Z,21.60
2018-01-12T13:59:34.988Z,20.27
2018-01-12T14:02:03.263Z,21.30
2018-01-12T14:04:31.591Z,20.80
2018-01-12T14:06:59.894Z,20.58
2018-01-12T14:09:28.247Z,23.10
2018-01-12T14:11:56.548Z,20.42
2018-01-12T14:14:24.828Z,24.33
2018-01-12T14:16:53.156Z,22.90
2018-01-12T14:19:21.444Z,21.27
2018-01-12T14:21:49.718Z,21.90
2018-01-12T14:24:17.994Z,22.02
2018-01-12T14:26:46.380Z,19.20
2018-01-12T14:29:14.593Z,21.07
2018-01-12T14:31:42.917Z,21.63
2018-01-12T14:34:11.198Z,20.80
2018-01-12T14:36:39.507Z,18.70
2018-01-12T14:39:07.802Z,22.47
2018-01-12T14:41:36.109Z,21.00
2018-01-12T14:44:05.137Z,18.07
2018-01-12T14:46:33.483Z,17.93
2018-01-12T14:49:01.775Z,17.07
2018-01-12T14:51:30.121Z,18.77
2018-01-12T14:53:58.448Z,16.30
2018-01-12T14:56:26.743Z,18.67
2018-01-12T14:58:55.043Z,19.83
2018-01-12T15:01:23.314Z,19.23
2018-01-12T15:03:51.636Z,19.30
2018-01-12T15:06:19.928Z,19.30
2018-01-12T15:08:48.251Z,17.20
2018-01-12T15:11:16.542Z,17.42
2018-01-12T15:13:44.862Z,15.70
2018-01-12T15:16:13.180Z,19.50
2018-01-12T15:18:41.472Z,15.97
2018-01-12T15:21:09.848Z,16.25
2018-01-12T15:23:38.135Z,15.37
2018-01-12T15:26:06.439Z,12.87
2018-01-12T15:28:34.716Z,13.55
2018-01-12T15:31:03.031Z,15.80
2018-01-12T15:33:31.487Z,25.13
2018-01-12T15:36:00.021Z,16.67
2018-01-12T15:38:28.324Z,17.87
2018-01-12T15:40:56.623Z,18.57
2018-01-12T15:43:24.890Z,16.80
2018-01-12T15:45:53.294Z,15.33
2018-01-12T15:48:21.556Z,16.80
2018-01-12T15:50:50.171Z,17.58
2018-01-12T15:53:18.534Z,20.20
2018-01-12T15:55:46.872Z,18.37
2018-01-12T15:58:15.159Z,15.03
2018-01-12T16:00:43.472Z,26.73
2018-01-12T16:03:11.746Z,21.50
2018-01-12T16:05:40.089Z,18.30
2018-01-12T16:08:08.449Z,18.02
2018-01-12T16:10:36.752Z,20.97
2018-01-12T16:13:05.062Z,19.43
2018-01-12T16:15:33.763Z,20.27
2018-01-12T16:18:02.075Z,19.47
2018-01-12T16:20:30.387Z,22.50
2018-01-12T16:22:58.709Z,21.60
2018-01-12T16:25:27.004Z,22.27
2018-01-12T16:27:55.369Z,25.70
2018-01-12T16:30:23.659Z,21.23
2018-01-12T16:32:51.962Z,23.27
2018-01-12T16:35:20.238Z,22.42
2018-01-12T16:37:48.551Z,22.03
2018-01-12T16:40:17.589Z,24.12
2018-01-12T16:42:45.890Z,25.90
2018-01-12T16:45:14.231Z,25.65
2018-01-12T16:47:43.304Z,25.13
2018-01-12T16:50:11.621Z,26.75
2018-01-12T16:52:39.901Z,28.80
2018-01-12T16:55:08.231Z,29.50
2018-01-12T16:57:36.824Z,29.42
2018-01-12T17:00:05.504Z,29.80
2018-01-12T17:02:33.787Z,28.50
2018-01-12T17:05:02.719Z,31.17
2018-01-12T17:07:30.986Z,33.30
2018-01-12T17:09:59.303Z,26.80
2018-01-12T17:12:27.651Z,27.33
2018-01-12T17:14:55.956Z,28.30
2018-01-12T17:17:24.284Z,25.40
2018-01-12T17:19:52.536Z,25.50
2018-01-12T17:22:20.879Z,30.30
2018-01-12T17:24:49.168Z,28.23
2018-01-12T17:27:17.490Z,26.77
2018-01-12T17:29:45.774Z,29.10
2018-01-12T17:32:14.098Z,30.00
2018-01-12T17:34:42.383Z,30.70
2018-01-12T17:37:10.701Z,27.65
2018-01-12T17:39:38.991Z,26.00
2018-01-12T17:42:07.797Z,25.97
2018-01-12T17:44:36.381Z,28.33
2018-01-12T17:47:05.013Z,24.70
2018-01-12T17:49:33.474Z,27.53
2018-01-12T17:52:01.741Z,27.60
2018-01-12T17:54:30.034Z,25.90
2018-01-12T17:56:58.488Z,27.87
2018-01-12T17:59:26.742Z,24.37
2018-01-12T18:01:55.026Z,24.13
2018-01-12T18:04:23.383Z,25.47
2018-01-12T18:06:51.717Z,24.63
2018-01-12T18:09:19.995Z,24.60
2018-01-12T18:11:48.375Z,24.50
2018-01-12T18:14:16.685Z,24.47
2018-01-12T18:16:44.984Z,24.20
2018-01-12T18:19:13.270Z,23.77
2018-01-12T18:21:41.619Z,23.53
2018-01-12T18:24:09.917Z,21.08
2018-01-12T18:26:38.211Z,23.10
2018-01-12T18:29:06.492Z,22.70
2018-01-12T18:31:34.832Z,24.10
2018-01-12T18:34:03.112Z,23.27
2018-01-12T18:36:31.415Z,24.30
2018-01-12T18:38:59.723Z,28.30
2018-01-12T18:41:28.010Z,25.30
2018-01-12T18:43:56.299Z,26.00
2018-01-12T18:46:24.563Z,27.40
2018-01-12T18:48:52.900Z,27.37
2018-01-12T18:51:21.269Z,25.40
2018-01-12T18:53:49.549Z,26.67
2018-01-12T18:56:17.805Z,24.57
2018-01-12T18:58:46.444Z,30.90
2018-01-12T19:01:14.749Z,29.23
2018-01-12T19:03:43.045Z,27.90
2018-01-12T19:06:11.326Z,30.85
2018-01-12T19:08:39.608Z,28.03
2018-01-12T19:11:07.894Z,34.93
2018-01-12T19:13:36.243Z,33.38
2018-01-12T19:16:04.554Z,30.00
2018-01-12T19:18:32.840Z,34.50
2018-01-12T19:21:01.143Z,27.53
2018-01-12T19:23:29.461Z,25.67
2018-01-12T19:25:57.726Z,27.93
2018-01-12T19:28:26.020Z,26.70
2018-01-12T19:30:54.365Z,29.57
2018-01-12T19:33:22.673Z,28.73
2018-01-12T19:35:50.970Z,31.03
2018-01-12T19:38:19.233Z,31.13
2018-01-12T19:40:47.539Z,28.27
2018-01-12T19:43:16.718Z,32.17
2018-01-12T19:45:44.963Z,34.43
2018-01-12T19:48:13.268Z,33.20
2018-01-12T19:50:41.604Z,31.80
2018-01-12T19:53:10.199Z,37.10
2018-01-12T19:55:38.474Z,31.80
2018-01-12T19:58:06.819Z,34.93
2018-01-12T20:00:35.098Z,31.87
2018-01-12T20:03:03.387Z,31.43
2018-01-12T20:05:31.691Z,34.40
2018-01-12T20:07:59.976Z,30.10
2018-01-12T20:10:28.254Z,34.23
2018-01-12T20:12:56.550Z,33.87
2018-01-12T20:15:24.875Z,34.33
2018-01-12T20:17:53.176Z,36.13
2018-01-12T20:20:21.495Z,27.63
2018-01-12T20:22:50.102Z,28.92
2018-01-12T20:25:18.955Z,26.40
2018-01-12T20:27:47.251Z,25.87
2018-01-12T20:30:15.534Z,33.25
2018-01-12T20:32:43.844Z,24.83
2018-01-12T20:35:12.133Z,26.58
2018-01-12T20:37:40.414Z,24.80
2018-01-12T20:40:08.706Z,28.48
2018-01-12T20:42:36.982Z,24.10
2018-01-12T20:45:05.271Z,23.80
2018-01-12T20:47:33.603Z,25.00
2018-01-12T20:50:01.874Z,26.80
2018-01-12T20:52:30.177Z,22.30
2018-01-12T20:54:58.423Z,23.93
2018-01-12T20:57:26.703Z,25.25
2018-01-12T20:59:55.016Z,22.37
2018-01-12T21:02:23.289Z,24.70
2018-01-12T21:04:52.452Z,21.73
2018-01-12T21:07:20.708Z,24.75
2018-01-12T21:09:49.042Z,23.60
2018-01-12T21:12:18.254Z,21.10
2018-01-12T21:14:46.577Z,22.13
2018-01-12T21:17:14.855Z,20.67
2018-01-12T21:19:43.138Z,24.00
2018-01-12T21:22:11.443Z,22.00
2018-01-12T21:24:39.752Z,25.93
2018-01-12T21:27:08.043Z,22.30
2018-01-12T21:29:36.617Z,20.77
2018-01-12T21:32:04.935Z,21.13
2018-01-12T21:34:33.248Z,28.93
2018-01-12T21:37:01.549Z,22.60
2018-01-12T21:39:29.832Z,22.40
2018-01-12T21:41:58.133Z,21.00
2018-01-12T21:44:26.421Z,25.03
2018-01-12T21:46:54.731Z,22.70
2018-01-12T21:49:23.039Z,25.93
2018-01-12T21:51:51.502Z,24.10
2018-01-12T21:54:19.828Z,23.33
2018-01-12T21:56:48.123Z,21.30
2018-01-12T21:59:16.426Z,25.60
2018-01-12T22:01:44.723Z,24.23
2018-01-12T22:04:13.028Z,26.92
2018-01-12T22:06:41.316Z,22.00
2018-01-12T22:09:09.622Z,22.32
2018-01-12T22:11:37.923Z,24.33
2018-01-12T22:14:06.213Z,22.08
2018-01-12T22:16:34.519Z,25.10
2018-01-12T22:19:02.818Z,24.97
2018-01-12T22:21:31.090Z,23.97
2018-01-12T22:23:59.375Z,23.30
2018-01-12T22:26:27.682Z,23.20
2018-01-12T22:28:57.008Z,21.77
2018-01-12T22:31:25.306Z,20.60
2018-01-12T22:33:53.566Z,21.77
2018-01-12T22:36:21.929Z,23.43
2018-01-12T22:38:50.248Z,24.33
2018-01-12T22:41:18.529Z,22.13
2018-01-12T22:43:46.833Z,25.33
2018-01-12T22:46:15.125Z,24.03
2018-01-12T22:48:44.070Z,22.80
2018-01-12T22:51:12.418Z,27.60
2018-01-12T22:53:40.709Z,28.23
2018-01-12T22:56:08.988Z,24.08
2018-01-12T22:58:37.267Z,29.07
2018-01-12T23:01:05.582Z,23.90
2018-01-12T23:03:33.889Z,25.02
2018-01-12T23:06:02.188Z,23.33
2018-01-12T23:08:30.511Z,24.00
2018-01-12T23:10:58.834Z,23.33
2018-01-12T23:13:27.127Z,29.20
2018-01-12T23:15:55.399Z,24.30
2018-01-12T23:18:23.698Z,24.40
2018-01-12T23:20:52.360Z,22.27
2018-01-12T23:23:20.637Z,24.30
2018-01-12T23:25:48.926Z,23.60
2018-01-12T23:28:17.251Z,22.60
2018-01-12T23:30:47.010Z,20.20
2018-01-12T23:33:15.906Z,21.30
2018-01-12T23:35:44.871Z,20.53
2018-01-12T23:38:13.166Z,23.60
2018-01-12T23:40:41.460Z,25.13
2018-01-12T23:43:09.792Z,21.65
2018-01-12T23:45:38.389Z,21.53
2018-01-12T23:48:06.676Z,25.60
2018-01-12T23:50:34.966Z,22.67
2018-01-12T23:53:03.324Z,20.00
2018-01-12T23:55:31.978Z,20.17
2018-01-12T23:58:00.295Z,19.40
